createdAt,value
2019-05-06T00:02:15.493Z,3.83
2019-05-06T00:04:45.913Z,3.60
2019-05-06T00:07:16.246Z,3.40
2019-05-06T00:09:46.534Z,3.43
2019-05-06T00:12:17.090Z,3.83
2019-05-06T00:14:47.385Z,4.10
2019-05-06T00:17:17.719Z,3.80
2019-05-06T00:19:48.698Z,3.67
2019-05-06T00:22:19.213Z,3.70
2019-05-06T00:24:55.857Z,3.30
2019-05-06T00:27:35.266Z,3.83
2019-05-06T00:30:07.643Z,3.83
2019-05-06T00:32:39.317Z,3.07
2019-05-06T00:35:09.725Z,3.80
2019-05-06T00:37:40.231Z,3.60
2019-05-06T00:40:17.072Z,3.23
2019-05-06T00:42:55.773Z,3.33
2019-05-06T00:45:26.265Z,3.30
2019-05-06T00:47:56.459Z,3.57
2019-05-06T00:50:27.288Z,3.53
2019-05-06T00:52:59.088Z,3.63
2019-05-06T00:55:29.479Z,3.40
2019-05-06T00:57:59.739Z,3.60
2019-05-06T01:00:34.635Z,3.93
2019-05-06T01:03:09.727Z,3.83
2019-05-06T01:05:41.228Z,3.77
2019-05-06T01:08:11.793Z,3.53
2019-05-06T01:10:44.817Z,4.00
2019-05-06T01:13:40.037Z,3.90
2019-05-06T01:16:12.131Z,3.47
2019-05-06T01:18:43.533Z,3.67
2019-05-06T01:21:14.568Z,3.80
2019-05-06T01:23:46.274Z,3.80
2019-05-06T01:26:17.314Z,3.33
2019-05-06T01:28:49.503Z,3.60
2019-05-06T01:31:19.742Z,3.73
2019-05-06T01:33:53.878Z,4.03
2019-05-06T01:36:26.555Z,3.57
2019-05-06T01:39:27.800Z,3.60
2019-05-06T01:42:24.609Z,3.50
2019-05-06T01:44:55.200Z,3.80
2019-05-06T01:47:25.518Z,3.87
2019-05-06T01:49:56.766Z,4.23
2019-05-06T01:52:27.054Z,4.30
2019-05-06T01:54:57.326Z,3.50
2019-05-06T01:57:27.670Z,3.80
2019-05-06T01:59:57.934Z,3.83
2019-05-06T02:02:28.263Z,3.90
2019-05-06T02:04:58.485Z,3.47
2019-05-06T02:07:28.795Z,4.03
2019-05-06T02:09:59.412Z,3.70
2019-05-06T02:12:29.940Z,3.87
2019-05-06T02:15:01.094Z,3.63
2019-05-06T02:17:31.864Z,3.37
2019-05-06T02:20:04.072Z,3.83
2019-05-06T02:22:44.274Z,3.57
2019-05-06T02:25:24.333Z,3.73
2019-05-06T02:27:54.378Z,3.30
2019-05-06T02:30:45.358Z,3.40
2019-05-06T02:33:37.749Z,3.50
2019-05-06T02:36:15.036Z,3.37
2019-05-06T02:38:50.670Z,3.50
2019-05-06T02:41:17.326Z,3.50
2019-05-06T02:43:47.590Z,3.17
2019-05-06T02:46:17.926Z,3.50
2019-05-06T02:49:13.230Z,3.43
2019-05-06T02:51:44.303Z,3.40
2019-05-06T02:54:14.637Z,3.50
2019-05-06T02:56:45.049Z,3.90
2019-05-06T02:59:15.386Z,3.30
2019-05-06T03:01:46.043Z,3.20
2019-05-06T03:04:16.296Z,3.50
2019-05-06T03:06:48.807Z,3.57
2019-05-06T03:09:19.051Z,3.57
2019-05-06T03:11:49.756Z,3.20
2019-05-06T03:14:23.333Z,3.10
2019-05-06T03:16:53.956Z,3.33
2019-05-06T03:19:26.295Z,3.60
2019-05-06T03:22:15.207Z,3.50
2019-05-06T03:24:47.895Z,3.07
2019-05-06T03:27:18.448Z,3.63
2019-05-06T03:29:48.790Z,3.63
2019-05-06T03:32:25.211Z,3.37
2019-05-06T03:35:07.901Z,3.30
2019-05-06T03:37:23.950Z,3.30
2019-05-06T03:39:54.481Z,3.37
2019-05-06T03:42:24.771Z,3.30
2019-05-06T03:44:59.559Z,3.50
2019-05-06T03:47:54.360Z,3.47
2019-05-06T03:50:24.738Z,3.53
2019-05-06T03:52:56.647Z,3.30
2019-05-06T03:55:29.217Z,3.70
2019-05-06T03:57:59.809Z,3.57
2019-05-06T04:00:33.158Z,3.37
2019-05-06T04:03:03.185Z,3.53
2019-05-06T04:05:34.225Z,3.10
2019-05-06T04:08:04.478Z,3.43
2019-05-06T04:10:36.932Z,3.20
2019-05-06T04:13:09.472Z,3.00
2019-05-06T04:15:57.749Z,2.90
2019-05-06T04:18:33.402Z,3.20
2019-05-06T04:21:16.965Z,3.10
2019-05-06T04:23:56.172Z,3.40
2019-05-06T04:26:35.067Z,3.00
2019-05-06T04:29:05.573Z,3.20
2019-05-06T04:31:35.844Z,3.20
2019-05-06T04:34:13.992Z,3.47
2019-05-06T04:36:38.411Z,2.90
2019-05-06T04:39:09.372Z,3.00
2019-05-06T04:41:39.656Z,3.00
2019-05-06T04:44:13.536Z,3.10
2019-05-06T04:46:44.302Z,2.97
2019-05-06T04:49:15.115Z,3.40
2019-05-06T04:51:45.711Z,3.53
2019-05-06T04:54:15.885Z,2.87
2019-05-06T04:56:46.504Z,3.17
2019-05-06T04:59:16.843Z,3.20
2019-05-06T05:01:47.144Z,3.10
2019-05-06T05:04:28.274Z,2.97
2019-05-06T05:06:52.274Z,3.47
2019-05-06T05:09:23.044Z,3.27
2019-05-06T05:12:15.599Z,3.60
2019-05-06T05:14:58.938Z,2.90
2019-05-06T05:17:42.052Z,3.47
2019-05-06T05:20:13.016Z,3.33
2019-05-06T05:22:43.415Z,3.07
2019-05-06T05:25:13.663Z,3.30
2019-05-06T05:27:44.164Z,3.33
2019-05-06T05:30:16.233Z,3.50
2019-05-06T05:32:46.520Z,3.40
2019-05-06T05:35:17.272Z,3.40
2019-05-06T05:37:47.562Z,3.40
2019-05-06T05:40:18.203Z,3.47
2019-05-06T05:42:58.141Z,2.97
2019-05-06T05:45:28.615Z,3.07
2019-05-06T05:48:02.902Z,2.97
2019-05-06T05:50:37.531Z,2.73
2019-05-06T05:53:08.066Z,2.93
2019-05-06T05:55:38.688Z,3.10
2019-05-06T05:58:09.151Z,3.10
2019-05-06T06:00:42.599Z,3.10
2019-05-06T06:03:12.970Z,2.80
2019-05-06T06:05:43.857Z,2.77
2019-05-06T06:08:14.102Z,2.67
2019-05-06T06:10:55.843Z,2.60
2019-05-06T06:13:26.113Z,2.70
2019-05-06T06:16:18.503Z,2.50
2019-05-06T06:19:14.686Z,3.00
2019-05-06T06:21:49.756Z,2.60
2019-05-06T06:24:29.507Z,2.10
2019-05-06T06:27:03.154Z,2.70
2019-05-06T06:29:33.906Z,3.20
2019-05-06T06:32:24.725Z,2.77
2019-05-06T06:35:14.717Z,3.13
2019-05-06T06:38:16.164Z,3.03
2019-05-06T06:40:46.417Z,2.97
2019-05-06T06:43:20.720Z,2.90
2019-05-06T06:45:52.965Z,2.80
2019-05-06T06:48:23.694Z,2.73
2019-05-06T06:50:54.356Z,2.60
2019-05-06T06:53:24.816Z,2.93
2019-05-06T06:56:14.036Z,2.50
2019-05-06T06:59:03.024Z,3.13
2019-05-06T07:01:42.788Z,2.67
2019-05-06T07:04:19.459Z,2.90
2019-05-06T07:06:54.019Z,2.50
2019-05-06T07:09:24.261Z,2.53
2019-05-06T07:11:55.085Z,2.70
2019-05-06T07:14:25.327Z,2.40
2019-05-06T07:16:56.050Z,3.23
2019-05-06T07:19:32.770Z,2.70
2019-05-06T07:22:06.373Z,2.63
2019-05-06T07:24:35.278Z,2.60
2019-05-06T07:27:22.860Z,2.60
2019-05-06T07:29:53.165Z,2.60
2019-05-06T07:32:23.490Z,2.30
2019-05-06T07:34:53.746Z,2.40
2019-05-06T07:37:23.973Z,2.50
2019-05-06T07:39:54.310Z,2.67
2019-05-06T07:42:36.994Z,2.90
2019-05-06T07:45:29.944Z,3.03
2019-05-06T07:48:06.409Z,2.57
2019-05-06T07:50:36.855Z,2.70
2019-05-06T07:53:09.589Z,2.40
2019-05-06T07:55:42.431Z,2.43
2019-05-06T07:58:13.810Z,2.40
2019-05-06T08:00:45.911Z,2.70
2019-05-06T08:03:16.628Z,2.87
2019-05-06T08:05:57.945Z,2.70
2019-05-06T08:08:19.527Z,2.50
2019-05-06T08:10:49.787Z,2.83
2019-05-06T08:13:22.465Z,2.70
2019-05-06T08:15:53.523Z,2.30
2019-05-06T08:18:24.691Z,2.23
2019-05-06T08:20:55.997Z,2.20
2019-05-06T08:23:33.163Z,2.20
2019-05-06T08:26:12.035Z,2.40
2019-05-06T08:28:40.614Z,2.40
2019-05-06T08:31:07.865Z,2.40
2019-05-06T08:33:38.334Z,2.20
2019-05-06T08:36:14.673Z,1.90
2019-05-06T08:38:59.877Z,2.00
2019-05-06T08:41:30.129Z,1.70
2019-05-06T08:44:02.690Z,1.97
2019-05-06T08:46:32.948Z,2.53
2019-05-06T08:49:04.415Z,2.40
2019-05-06T08:51:42.575Z,2.30
2019-05-06T08:54:22.893Z,2.30
2019-05-06T08:56:53.538Z,2.50
2019-05-06T08:59:24.145Z,2.20
2019-05-06T09:01:55.979Z,2.17
2019-05-06T09:04:27.021Z,2.30
2019-05-06T09:06:57.247Z,2.23
2019-05-06T09:09:27.554Z,2.40
2019-05-06T09:11:58.084Z,2.10
2019-05-06T09:14:28.883Z,2.10
2019-05-06T09:16:59.117Z,2.50
2019-05-06T09:19:30.256Z,2.50
2019-05-06T09:22:02.509Z,2.30
2019-05-06T09:24:32.521Z,2.00
2019-05-06T09:27:22.483Z,2.20
2019-05-06T09:29:55.598Z,2.20
2019-05-06T09:32:35.663Z,2.30
2019-05-06T09:35:03.170Z,1.93
2019-05-06T09:37:33.755Z,2.10
2019-05-06T09:40:04.542Z,2.33
2019-05-06T09:42:35.772Z,2.23
2019-05-06T09:45:06.374Z,1.90
2019-05-06T09:47:56.164Z,2.13
2019-05-06T09:50:36.315Z,2.23
2019-05-06T09:53:09.457Z,2.13
2019-05-06T09:55:45.713Z,2.30
2019-05-06T09:58:16.200Z,2.20
2019-05-06T10:00:49.757Z,2.47
2019-05-06T10:03:20.120Z,2.20
2019-05-06T10:05:53.060Z,2.10
2019-05-06T10:08:23.326Z,2.10
2019-05-06T10:10:59.533Z,1.90
2019-05-06T10:13:26.015Z,1.90
2019-05-06T10:15:57.771Z,2.00
2019-05-06T10:18:28.240Z,2.60
2019-05-06T10:20:58.588Z,2.77
2019-05-06T10:23:28.864Z,2.20
2019-05-06T10:25:59.148Z,2.07
2019-05-06T10:28:43.475Z,2.10
2019-05-06T10:31:16.022Z,1.97
2019-05-06T10:34:03.966Z,1.77
2019-05-06T10:36:44.836Z,1.80
2019-05-06T10:39:17.964Z,1.90
2019-05-06T10:41:53.742Z,1.40
2019-05-06T10:44:42.795Z,1.83
2019-05-06T10:47:12.294Z,1.13
2019-05-06T10:49:42.862Z,1.53
2019-05-06T10:52:18.030Z,1.50
2019-05-06T10:54:48.379Z,1.30
2019-05-06T10:57:43.124Z,1.40
2019-05-06T11:00:15.654Z,1.60
2019-05-06T11:03:22.688Z,1.40
2019-05-06T11:05:53.898Z,1.50
2019-05-06T11:08:24.122Z,1.97
2019-05-06T11:10:54.670Z,1.50
2019-05-06T11:13:24.926Z,1.57
2019-05-06T11:15:55.633Z,1.60
2019-05-06T11:18:26.284Z,1.67
2019-05-06T11:20:56.625Z,1.80
2019-05-06T11:23:29.878Z,1.60
2019-05-06T11:26:00.143Z,1.70
2019-05-06T11:28:48.999Z,1.50
2019-05-06T11:31:28.579Z,1.70
2019-05-06T11:34:22.137Z,1.63
2019-05-06T11:36:56.488Z,1.60
2019-05-06T11:39:26.677Z,1.50
2019-05-06T11:42:22.570Z,1.80
2019-05-06T11:44:29.358Z,1.57
2019-05-06T11:46:59.828Z,1.43
2019-05-06T11:49:32.551Z,1.50
2019-05-06T11:52:02.728Z,1.57
2019-05-06T11:54:33.874Z,1.40
2019-05-06T11:57:06.012Z,1.40
2019-05-06T11:59:36.281Z,1.67
2019-05-06T12:02:07.944Z,1.47
2019-05-06T12:04:38.746Z,1.50
2019-05-06T12:07:11.716Z,1.40
2019-05-06T12:09:41.715Z,1.40
2019-05-06T12:12:12.779Z,1.70
2019-05-06T12:14:44.437Z,1.50
2019-05-06T12:17:14.682Z,1.40
2019-05-06T12:19:45.953Z,1.63
2019-05-06T12:22:16.220Z,1.40
2019-05-06T12:24:46.567Z,1.40
2019-05-06T12:27:36.271Z,1.20
2019-05-06T12:30:07.112Z,1.57
2019-05-06T12:32:43.313Z,1.30
2019-05-06T12:35:17.385Z,1.23
2019-05-06T12:37:49.723Z,1.50
2019-05-06T12:40:21.525Z,1.50
2019-05-06T12:42:55.968Z,1.60
2019-05-06T12:45:37.967Z,1.20
2019-05-06T12:48:27.272Z,1.30
2019-05-06T12:51:03.061Z,1.47
2019-05-06T12:53:33.571Z,1.60
2019-05-06T12:56:03.915Z,1.23
2019-05-06T12:58:34.502Z,1.30
2019-05-06T13:01:06.010Z,1.10
2019-05-06T13:03:36.805Z,1.20
2019-05-06T13:06:08.747Z,1.40
2019-05-06T13:08:53.849Z,1.27
2019-05-06T13:11:13.166Z,1.60
2019-05-06T13:13:56.459Z,1.30
2019-05-06T13:16:17.119Z,1.30
2019-05-06T13:18:51.423Z,1.30
2019-05-06T13:21:22.211Z,1.00
2019-05-06T13:23:55.548Z,1.20
2019-05-06T13:26:25.991Z,1.57
2019-05-06T13:29:04.090Z,1.30
2019-05-06T13:31:32.763Z,1.10
2019-05-06T13:34:11.198Z,1.27
2019-05-06T13:36:42.899Z,1.20
2019-05-06T13:39:15.344Z,1.53
2019-05-06T13:41:48.264Z,1.13
2019-05-06T13:44:22.518Z,1.30
2019-05-06T13:46:53.990Z,1.40
2019-05-06T13:49:43.413Z,1.23
2019-05-06T13:52:15.209Z,1.10
2019-05-06T13:54:45.448Z,1.10
2019-05-06T13:57:15.938Z,1.10
2019-05-06T13:59:46.491Z,1.50
2019-05-06T14:02:44.677Z,1.43
2019-05-06T14:05:17.079Z,1.13
2019-05-06T14:07:47.537Z,1.30
2019-05-06T14:10:17.983Z,1.30
2019-05-06T14:12:48.625Z,1.33
2019-05-06T14:15:19.714Z,1.30
2019-05-06T14:17:50.096Z,1.47
2019-05-06T14:20:21.990Z,1.20
2019-05-06T14:22:53.538Z,1.20
2019-05-06T14:25:45.778Z,1.10
2019-05-06T14:28:32.490Z,1.10
2019-05-06T14:31:27.712Z,1.30
2019-05-06T14:33:57.975Z,1.10
2019-05-06T14:36:32.886Z,1.07
2019-05-06T14:39:05.027Z,0.93
2019-05-06T14:41:47.408Z,1.10
2019-05-06T14:44:17.734Z,1.20
2019-05-06T14:47:12.616Z,1.10
2019-05-06T14:49:43.388Z,0.93
2019-05-06T14:52:14.079Z,1.10
2019-05-06T14:55:06.387Z,1.20
2019-05-06T14:57:36.964Z,1.13
2019-05-06T15:00:08.279Z,1.30
2019-05-06T15:02:38.718Z,1.10
2019-05-06T15:05:09.436Z,1.13
2019-05-06T15:07:41.951Z,1.10
2019-05-06T15:10:21.965Z,1.33
2019-05-06T15:12:44.327Z,1.20
2019-05-06T15:15:15.573Z,1.20
2019-05-06T15:17:46.146Z,1.50
2019-05-06T15:20:16.731Z,1.30
2019-05-06T15:22:47.060Z,1.30
2019-05-06T15:25:17.323Z,1.60
2019-05-06T15:27:47.606Z,1.40
2019-05-06T15:30:25.305Z,1.17
2019-05-06T15:32:55.618Z,1.37
2019-05-06T15:35:44.935Z,1.20
2019-05-06T15:38:21.991Z,1.20
2019-05-06T15:40:52.534Z,1.40
2019-05-06T15:43:23.211Z,1.20
2019-05-06T15:45:53.575Z,1.40
2019-05-06T15:48:24.145Z,1.63
2019-05-06T15:50:54.562Z,1.37
2019-05-06T15:53:24.913Z,1.30
2019-05-06T15:55:55.100Z,1.17
2019-05-06T15:58:27.128Z,1.10
2019-05-06T16:00:57.475Z,1.50
2019-05-06T16:03:27.749Z,1.30
2019-05-06T16:05:57.971Z,1.30
2019-05-06T16:08:28.317Z,1.40
2019-05-06T16:10:59.048Z,1.50
2019-05-06T16:13:29.548Z,1.40
2019-05-06T16:15:59.937Z,1.77
2019-05-06T16:18:32.572Z,1.60
2019-05-06T16:21:02.969Z,1.17
2019-05-06T16:23:47.242Z,1.30
2019-05-06T16:26:17.919Z,1.60
2019-05-06T16:28:48.435Z,1.40
2019-05-06T16:31:18.758Z,1.40
2019-05-06T16:33:49.103Z,1.53
2019-05-06T16:36:19.351Z,1.60
2019-05-06T16:38:49.663Z,1.60
2019-05-06T16:41:22.348Z,1.70
2019-05-06T16:43:52.457Z,1.40
2019-05-06T16:46:23.146Z,1.63
2019-05-06T16:48:54.218Z,1.80
2019-05-06T16:51:24.583Z,1.60
2019-05-06T16:53:55.327Z,1.50
2019-05-06T16:56:41.790Z,1.57
2019-05-06T16:59:11.923Z,1.83
2019-05-06T17:01:44.135Z,1.93
2019-05-06T17:04:23.238Z,2.00
2019-05-06T17:06:53.815Z,2.17
2019-05-06T17:09:27.493Z,1.90
2019-05-06T17:11:56.235Z,2.00
2019-05-06T17:14:26.694Z,2.10
2019-05-06T17:16:57.029Z,1.53
2019-05-06T17:19:27.303Z,2.30
2019-05-06T17:21:57.619Z,1.77
2019-05-06T17:24:28.248Z,2.13
2019-05-06T17:26:58.698Z,1.87
2019-05-06T17:29:46.721Z,1.90
2019-05-06T17:32:25.531Z,2.33
2019-05-06T17:34:57.947Z,2.07
2019-05-06T17:37:55.927Z,2.13
2019-05-06T17:40:26.546Z,1.97
2019-05-06T17:42:57.067Z,2.10
2019-05-06T17:45:58.322Z,2.30
2019-05-06T17:48:28.060Z,2.40
2019-05-06T17:51:15.629Z,2.00
2019-05-06T17:53:52.277Z,2.10
2019-05-06T17:56:22.993Z,2.40
2019-05-06T17:58:53.461Z,2.10
2019-05-06T18:01:28.918Z,2.00
2019-05-06T18:03:59.440Z,2.30
2019-05-06T18:06:29.783Z,2.20
2019-05-06T18:09:02.370Z,2.27
2019-05-06T18:11:33.851Z,2.20
2019-05-06T18:14:04.403Z,1.97
2019-05-06T18:16:35.985Z,2.00
2019-05-06T18:19:06.935Z,2.00
2019-05-06T18:21:37.261Z,1.97
2019-05-06T18:24:09.894Z,2.30
2019-05-06T18:26:42.067Z,2.20
2019-05-06T18:29:14.129Z,2.27
2019-05-06T18:31:44.478Z,2.10
2019-05-06T18:34:14.792Z,2.30
2019-05-06T18:36:45.096Z,2.30
2019-05-06T18:39:15.371Z,2.00
2019-05-06T18:41:45.972Z,2.50
2019-05-06T18:44:16.322Z,2.23
2019-05-06T18:46:46.608Z,2.40
2019-05-06T18:49:16.976Z,2.17
2019-05-06T18:51:47.540Z,2.00
2019-05-06T18:54:18.290Z,2.27
2019-05-06T18:56:53.564Z,2.30
2019-05-06T18:59:24.276Z,1.87
2019-05-06T19:01:55.188Z,2.43
2019-05-06T19:04:41.893Z,2.20
2019-05-06T19:07:16.145Z,2.43
2019-05-06T19:10:03.222Z,2.47
2019-05-06T19:12:40.480Z,2.23
2019-05-06T19:15:06.242Z,3.23
2019-05-06T19:17:36.696Z,2.53
2019-05-06T19:20:07.778Z,2.60
2019-05-06T19:22:38.379Z,2.70
2019-05-06T19:25:08.738Z,3.30
2019-05-06T19:27:39.161Z,2.63
2019-05-06T19:30:09.614Z,2.77
2019-05-06T19:32:42.373Z,2.93
2019-05-06T19:35:13.190Z,3.17
2019-05-06T19:37:44.038Z,3.13
2019-05-06T19:40:14.516Z,2.80
2019-05-06T19:42:49.744Z,2.70
2019-05-06T19:45:17.404Z,3.07
2019-05-06T19:47:47.967Z,2.87
2019-05-06T19:50:23.576Z,3.20
2019-05-06T19:52:52.871Z,3.67
2019-05-06T19:55:23.620Z,3.70
2019-05-06T19:57:53.965Z,3.40
2019-05-06T20:00:26.154Z,3.80
2019-05-06T20:02:56.643Z,3.67
2019-05-06T20:05:36.272Z,3.50
2019-05-06T20:08:16.165Z,3.47
2019-05-06T20:11:08.590Z,4.00
2019-05-06T20:13:38.936Z,4.07
2019-05-06T20:16:09.188Z,3.53
2019-05-06T20:18:42.480Z,4.00
2019-05-06T20:21:12.393Z,3.87
2019-05-06T20:23:42.947Z,4.00
2019-05-06T20:26:13.291Z,3.97
2019-05-06T20:28:43.776Z,3.73
2019-05-06T20:31:14.296Z,3.73
2019-05-06T20:33:44.752Z,4.10
2019-05-06T20:36:15.353Z,4.00
2019-05-06T20:38:45.918Z,4.07
2019-05-06T20:41:17.291Z,3.93
2019-05-06T20:43:47.975Z,4.37
2019-05-06T20:46:21.861Z,4.57
2019-05-06T20:48:52.949Z,4.40
2019-05-06T20:51:23.320Z,5.73
2019-05-06T20:53:53.658Z,5.60
2019-05-06T20:56:23.957Z,5.93
2019-05-06T20:58:54.592Z,5.30
2019-05-06T21:01:25.294Z,6.00
2019-05-06T21:03:55.552Z,5.70
2019-05-06T21:06:26.271Z,4.90
2019-05-06T21:08:56.519Z,4.53
2019-05-06T21:11:29.280Z,4.60
2019-05-06T21:14:01.655Z,4.87
2019-05-06T21:16:32.093Z,4.40
2019-05-06T21:19:03.184Z,4.43
2019-05-06T21:21:34.046Z,4.17
2019-05-06T21:24:04.652Z,4.33
2019-05-06T21:26:34.959Z,4.43
2019-05-06T21:29:05.403Z,4.30
2019-05-06T21:31:35.891Z,4.50
2019-05-06T21:34:06.235Z,5.00
2019-05-06T21:36:36.508Z,5.00
2019-05-06T21:39:08.385Z,4.73
2019-05-06T21:41:39.228Z,5.00
2019-05-06T21:44:09.588Z,5.07
2019-05-06T21:46:40.026Z,5.27
2019-05-06T21:49:12.120Z,4.93
2019-05-06T21:51:42.665Z,4.90
2019-05-06T21:54:12.956Z,5.00
2019-05-06T21:56:43.250Z,4.97
2019-05-06T21:59:13.839Z,5.47
2019-05-06T22:01:45.166Z,5.20
2019-05-06T22:04:15.526Z,5.07
2019-05-06T22:06:45.962Z,5.30
2019-05-06T22:09:16.638Z,4.97
2019-05-06T22:11:46.949Z,5.27
2019-05-06T22:14:17.260Z,5.53
2019-05-06T22:16:47.698Z,5.80
2019-05-06T22:19:19.271Z,5.37
2019-05-06T22:22:05.233Z,5.83
2019-05-06T22:24:57.271Z,5.23
2019-05-06T22:27:23.126Z,5.60
2019-05-06T22:29:53.448Z,5.57
2019-05-06T22:32:23.745Z,5.63
2019-05-06T22:34:54.041Z,5.93
2019-05-06T22:37:24.371Z,5.63
2019-05-06T22:39:54.623Z,6.00
2019-05-06T22:42:25.097Z,5.67
2019-05-06T22:44:55.397Z,6.07
2019-05-06T22:47:25.699Z,5.53
2019-05-06T22:49:55.971Z,6.17
2019-05-06T22:52:26.271Z,5.80
2019-05-06T22:54:56.715Z,6.50
2019-05-06T22:57:27.029Z,5.50
2019-05-06T22:59:57.475Z,6.33
2019-05-06T23:02:49.489Z,6.43
2019-05-06T23:05:19.774Z,6.23
2019-05-06T23:07:50.074Z,5.53
2019-05-06T23:10:24.563Z,6.33
2019-05-06T23:12:53.556Z,6.77
2019-05-06T23:15:23.939Z,7.37
2019-05-06T23:17:54.233Z,6.20
2019-05-06T23:20:24.656Z,5.80
2019-05-06T23:22:54.877Z,6.77
2019-05-06T23:25:25.917Z,6.73
2019-05-06T23:27:58.423Z,5.73
2019-05-06T23:30:28.764Z,6.80
2019-05-06T23:32:59.046Z,6.93
2019-05-06T23:35:29.234Z,7.33
2019-05-06T23:38:35.310Z,7.00
2019-05-06T23:41:42.314Z,6.37
2019-05-06T23:44:49.111Z,7.10
2019-05-06T23:47:55.086Z,7.10
2019-05-06T23:51:01.235Z,6.90
2019-05-06T23:54:07.585Z,8.20
2019-05-06T23:56:39.033Z,7.13
2019-05-06T23:59:12.352Z,6.70
